Time;durP1;ratioP1;P1;durP2;ratioP2;P2;SDS_P1;SDS_P2;PMS_P1;PMS_P2;Temp;Humidity;BMP_temperature;BMP_pressure;BME280_temperature;BME280_humidity;BME280_pressure;Samples;Min_cycle;Max_cycle;Signal;HPM_P1;HPM_P2
2022/03/19 04:00:38;;;;;;;4.90;4.70;;;7.20;73.70;;;;;;5992100;23;20459;31
2022/03/19 04:03:05;;;;;;;4.37;4.17;;;7.10;73.70;;;;;;4897228;29;20485;-72
2022/03/19 04:05:33;;;;;;;3.67;3.53;;;7.20;74.00;;;;;;4898493;29;20520;-72
2022/03/19 04:08:01;;;;;;;4.13;3.93;;;7.20;73.70;;;;;;4898561;29;20465;-73
2022/03/19 04:10:27;;;;;;;3.70;3.57;;;7.20;73.60;;;;;;4898424;29;20445;-72
2022/03/19 04:12:54;;;;;;;3.90;3.70;;;7.20;73.50;;;;;;4898498;29;21003;-73
2022/03/19 04:17:51;;;;;;;3.93;3.73;;;7.20;73.50;;;;;;5029127;23;20909;-78
2022/03/19 04:20:18;;;;;;;3.73;3.57;;;7.20;73.20;;;;;;4917729;29;20530;-78
2022/03/19 04:22:46;;;;;;;3.87;3.67;;;7.30;73.10;;;;;;4918137;29;20457;-78
2022/03/19 04:25:14;;;;;;;3.40;3.30;;;7.30;72.90;;;;;;4918743;29;20489;-78
2022/03/19 04:27:41;;;;;;;4.37;4.17;;;7.30;72.60;;;;;;4919018;29;20504;-78
2022/03/19 04:30:12;;;;;;;3.70;3.50;;;7.20;72.80;;;;;;4917296;29;20863;-78
2022/03/19 04:32:42;;;;;;;4.50;4.30;;;7.20;72.90;;;;;;4917569;29;20536;-78
2022/03/19 04:37:56;;;;;;;4.00;3.80;;;7.20;72.90;;;;;;4923155;29;20416;-78
2022/03/19 04:40:22;;;;;;;3.80;3.60;;;7.30;72.60;;;;;;4924411;29;20452;-78
2022/03/19 04:42:49;;;;;;;3.40;3.30;;;7.20;72.70;;;;;;4927199;29;20460;-79
2022/03/19 04:45:16;;;;;;;4.00;3.80;;;7.20;72.70;;;;;;4927068;29;20462;-79
2022/03/19 04:47:43;;;;;;;3.73;3.63;;;7.20;72.70;;;;;;4926284;29;21003;-78
2022/03/19 04:50:11;;;;;;;4.67;4.47;;;7.20;72.60;;;;;;4927329;29;20479;-78
2022/03/19 04:52:39;;;;;;;4.17;3.97;;;7.20;72.30;;;;;;4926770;29;20453;-78
2022/03/19 04:55:09;;;;;;;4.33;4.13;;;7.20;72.40;;;;;;4926979;29;20448;-78
2022/03/19 04:57:36;;;;;;;4.63;4.43;;;7.10;72.80;;;;;;4927122;29;20468;-78
2022/03/19 05:00:05;;;;;;;3.50;3.40;;;7.10;72.40;;;;;;4926374;29;20453;-78
2022/03/19 05:02:32;;;;;;;3.93;3.73;;;7.00;73.00;;;;;;4926448;29;20456;-78
2022/03/19 05:05:00;;;;;;;4.03;3.83;;;7.00;72.90;;;;;;4925773;29;20452;-78
2022/03/19 05:07:28;;;;;;;4.17;3.97;;;7.00;72.90;;;;;;4929205;29;20874;-78
2022/03/19 05:12:41;;;;;;;3.87;3.67;;;7.10;72.50;;;;;;4929816;29;20782;-78
2022/03/19 05:15:12;;;;;;;4.93;4.73;;;7.10;72.30;;;;;;4929740;29;20453;-78
2022/03/19 05:17:38;;;;;;;4.00;3.80;;;7.10;72.30;;;;;;4930126;29;20480;-78
2022/03/19 05:20:06;;;;;;;3.93;3.73;;;7.20;72.10;;;;;;4928844;29;20484;-78
2022/03/19 05:22:35;;;;;;;4.33;4.13;;;7.20;71.90;;;;;;4929361;29;20460;-78
2022/03/19 05:25:02;;;;;;;3.80;3.60;;;7.20;71.80;;;;;;4929389;29;20463;-78
2022/03/19 05:27:29;;;;;;;4.03;3.73;;;7.10;72.00;;;;;;4928961;29;20488;-78
2022/03/19 05:29:56;;;;;;;3.77;3.67;;;7.10;71.80;;;;;;4929743;29;20455;-78
2022/03/19 05:32:23;;;;;;;4.33;4.13;;;7.10;71.60;;;;;;4929026;29;20551;-78
2022/03/19 05:34:50;;;;;;;4.00;3.80;;;7.10;71.70;;;;;;4929247;29;20463;-78
2022/03/19 05:37:17;;;;;;;4.80;4.40;;;7.20;71.30;;;;;;4928509;29;21007;-78
2022/03/19 05:39:46;;;;;;;4.23;4.03;;;7.10;71.40;;;;;;4928816;29;20831;-80
2022/03/19 05:42:12;;;;;;;3.93;3.83;;;7.00;71.20;;;;;;4929590;29;20453;-78
2022/03/19 05:44:39;;;;;;;3.97;3.77;;;7.00;71.60;;;;;;4929188;29;20511;-79
2022/03/19 05:47:07;;;;;;;4.27;4.00;;;7.10;71.60;;;;;;4928701;29;20499;-79
2022/03/19 05:49:33;;;;;;;4.20;4.00;;;7.10;71.50;;;;;;4928905;29;20460;-78
2022/03/19 05:52:00;;;;;;;3.50;3.40;;;7.20;71.30;;;;;;4921118;29;20801;-78
2022/03/19 05:54:27;;;;;;;3.83;3.63;;;7.40;70.90;;;;;;4920249;29;20452;-77
2022/03/19 05:56:55;;;;;;;3.50;3.30;;;7.60;70.30;;;;;;4920216;29;20521;-78
2022/03/19 05:59:22;;;;;;;3.37;3.20;;;7.90;69.20;;;;;;4920301;29;20449;-78
2022/03/19 06:01:49;;;;;;;3.47;3.27;;;8.30;68.80;;;;;;4920146;29;20455;-78
2022/03/19 06:04:16;;;;;;;3.30;3.10;;;8.60;67.80;;;;;;4920195;29;20448;-78
2022/03/19 06:06:43;;;;;;;3.00;2.90;;;9.10;66.30;;;;;;4919931;29;20571;-78
2022/03/19 06:09:10;;;;;;;3.13;3.00;;;9.50;65.40;;;;;;4919995;29;20467;-78
2022/03/19 06:11:38;;;;;;;3.53;3.33;;;9.80;63.80;;;;;;4919937;29;20452;-78
2022/03/19 06:14:07;;;;;;;3.47;3.27;;;9.90;63.40;;;;;;4919937;29;20460;-78
2022/03/19 06:16:34;;;;;;;3.40;3.30;;;10.00;62.90;;;;;;4919281;29;20481;-78
2022/03/19 06:19:00;;;;;;;3.50;3.30;;;10.20;62.50;;;;;;4919823;29;20460;-78
2022/03/19 06:21:27;;;;;;;3.70;3.50;;;10.30;62.30;;;;;;4919783;29;20449;-78
2022/03/19 06:23:54;;;;;;;3.80;3.60;;;10.50;61.70;;;;;;4920025;29;20530;-78
2022/03/19 06:26:23;;;;;;;3.60;3.40;;;10.80;61.20;;;;;;4919806;29;20473;-78
2022/03/19 06:28:49;;;;;;;4.00;3.80;;;11.30;60.10;;;;;;4919794;29;20496;-79
2022/03/19 06:31:18;;;;;;;3.60;3.40;;;11.80;58.60;;;;;;4919607;29;20509;-79
2022/03/19 06:33:45;;;;;;;3.60;3.40;;;12.30;57.80;;;;;;4919545;29;20453;-78
2022/03/19 06:38:57;;;;;;;3.20;3.00;;;13.90;54.20;;;;;;4919477;29;20419;-78
2022/03/19 06:41:24;;;;;;;2.90;2.80;;;14.70;52.20;;;;;;4919708;29;20792;-79
2022/03/19 06:43:51;;;;;;;3.23;3.10;;;15.50;50.80;;;;;;4919793;29;20500;-79
2022/03/19 06:46:19;;;;;;;3.20;2.97;;;16.10;49.20;;;;;;4919576;29;20528;-78
2022/03/19 06:48:49;;;;;;;3.30;3.20;;;16.70;47.70;;;;;;4920112;29;20512;-79
2022/03/19 06:51:17;;;;;;;3.10;3.00;;;17.20;46.50;;;;;;4919990;29;20472;-79
2022/03/19 06:53:44;;;;;;;3.20;3.10;;;17.80;45.60;;;;;;4935192;29;20480;-79
2022/03/19 06:56:10;;;;;;;2.90;2.80;;;18.20;44.80;;;;;;4930532;29;20476;-79
2022/03/19 06:58:37;;;;;;;3.40;3.30;;;18.70;44.20;;;;;;4921645;29;20945;-78
2022/03/19 07:01:05;;;;;;;2.80;2.70;;;19.30;43.60;;;;;;4926458;29;20484;-79
2022/03/19 07:03:33;;;;;;;3.40;3.30;;;19.80;42.40;;;;;;4923485;29;20979;-79
2022/03/19 07:06:00;;;;;;;3.10;3.00;;;20.10;42.30;;;;;;4924704;29;20480;-79
2022/03/19 07:08:26;;;;;;;3.40;3.30;;;20.50;41.40;;;;;;4925839;29;20563;-79
2022/03/19 07:10:53;;;;;;;3.83;2.93;;;20.40;41.30;;;;;;4921775;29;20461;-78
2022/03/19 07:13:20;;;;;;;3.00;2.90;;;20.50;41.20;;;;;;4920252;29;20880;-78
2022/03/19 07:15:46;;;;;;;3.00;2.90;;;20.80;41.10;;;;;;4920453;29;20476;-79
2022/03/19 07:18:13;;;;;;;3.43;3.33;;;21.20;40.30;;;;;;4919839;29;20437;-78
2022/03/19 07:20:41;;;;;;;3.03;2.93;;;20.70;40.40;;;;;;4921337;29;20484;-79
2022/03/19 07:23:08;;;;;;;3.17;3.07;;;20.30;40.70;;;;;;4920882;29;20508;-79
2022/03/19 07:25:36;;;;;;;3.10;3.00;;;20.00;41.60;;;;;;4921517;29;20449;-79
2022/03/19 07:28:06;;;;;;;3.07;2.97;;;20.10;40.40;;;;;;4919827;29;20540;-79
2022/03/19 07:30:33;;;;;;;3.13;3.03;;;18.90;41.90;;;;;;4919536;29;20517;-78
2022/03/19 07:33:00;;;;;;;3.03;2.90;;;17.40;43.80;;;;;;4919020;29;20543;-78
2022/03/19 07:35:27;;;;;;;3.43;3.23;;;16.20;45.90;;;;;;4918561;29;20500;-79
2022/03/19 07:37:57;;;;;;;3.23;3.10;;;15.10;48.20;;;;;;4918467;29;20452;-78
2022/03/19 07:43:10;;;;;;;3.23;3.13;;;13.40;52.00;;;;;;4918584;29;20904;-77
2022/03/19 07:45:38;;;;;;;3.50;3.40;;;13.00;53.10;;;;;;4917969;29;21003;-77
2022/03/19 07:48:06;;;;;;;3.63;3.47;;;12.90;53.50;;;;;;4918309;29;20484;-78
2022/03/19 07:50:33;;;;;;;3.10;3.00;;;12.60;53.90;;;;;;4918262;29;20829;-78
2022/03/19 07:53:02;;;;;;;3.50;3.30;;;12.20;54.40;;;;;;4918011;29;20992;-78
2022/03/19 07:55:28;;;;;;;3.00;2.90;;;11.60;56.20;;;;;;4918031;29;20452;-78
2022/03/19 07:57:55;;;;;;;3.47;3.37;;;11.30;56.80;;;;;;4918065;29;20445;-78
2022/03/19 08:00:22;;;;;;;3.10;3.00;;;11.20;57.60;;;;;;4918056;29;20452;-78
2022/03/19 08:02:50;;;;;;;3.00;2.90;;;11.40;57.70;;;;;;4918022;29;20456;-78
2022/03/19 08:05:16;;;;;;;3.20;3.10;;;11.40;56.40;;;;;;4917795;29;20973;-78
2022/03/19 08:07:43;;;;;;;2.80;2.70;;;11.00;57.00;;;;;;4917604;29;20551;-78
2022/03/19 08:10:12;;;;;;;3.40;3.30;;;10.90;57.00;;;;;;4917946;29;20457;-78
2022/03/19 08:12:42;;;;;;;3.50;3.30;;;10.80;56.80;;;;;;4917924;29;20479;-78
2022/03/19 08:15:11;;;;;;;2.80;2.70;;;10.60;58.10;;;;;;4917463;29;20872;-78
2022/03/19 08:17:41;;;;;;;2.60;2.50;;;10.60;58.40;;;;;;4917357;29;20576;-78
2022/03/19 08:20:09;;;;;;;2.90;2.80;;;10.70;57.80;;;;;;4917941;29;20913;-78
2022/03/19 08:22:36;;;;;;;3.03;2.93;;;10.60;57.10;;;;;;4917700;29;20453;-78
2022/03/19 08:25:04;;;;;;;2.57;2.47;;;10.50;56.60;;;;;;4917596;29;20460;-77
2022/03/19 08:27:31;;;;;;;3.00;2.90;;;10.10;57.20;;;;;;4917409;29;20563;-77
2022/03/19 08:29:59;;;;;;;2.73;2.63;;;10.00;57.50;;;;;;4917490;29;20523;-78
2022/03/19 08:32:26;;;;;;;2.80;2.70;;;9.90;58.10;;;;;;4917451;29;20457;-77
2022/03/19 08:34:53;;;;;;;2.70;2.60;;;9.90;57.20;;;;;;4917098;29;21074;-77
2022/03/19 08:37:19;;;;;;;3.43;2.40;;;10.00;56.60;;;;;;4917294;29;20555;-77
2022/03/19 08:42:33;;;;;;;2.60;2.50;;;10.00;56.90;;;;;;4917430;29;20412;-77
2022/03/19 08:45:00;;;;;;;2.77;2.67;;;9.90;56.90;;;;;;4917343;29;20508;-77
2022/03/19 08:47:27;;;;;;;2.60;2.50;;;10.00;57.10;;;;;;4917107;29;20548;-77
2022/03/19 08:49:53;;;;;;;2.60;2.50;;;10.10;55.30;;;;;;4916944;29;20977;-76
2022/03/19 08:52:20;;;;;;;2.60;2.50;;;10.10;56.90;;;;;;4916897;29;20799;-77
2022/03/19 08:54:47;;;;;;;2.20;2.10;;;10.30;57.00;;;;;;4917228;29;20532;-77
2022/03/19 08:57:14;;;;;;;2.70;2.60;;;10.50;56.30;;;;;;4917106;29;20468;-78
2022/03/19 08:59:42;;;;;;;2.57;2.47;;;10.50;55.40;;;;;;4917133;29;20453;-77
2022/03/19 09:02:09;;;;;;;2.30;2.20;;;10.60;54.10;;;;;;4917161;29;20452;-77
2022/03/19 09:04:36;;;;;;;2.90;2.70;;;10.60;55.00;;;;;;4916878;29;20464;-77
2022/03/19 09:07:03;;;;;;;2.20;2.10;;;10.70;54.60;;;;;;4916905;29;20477;-78
2022/03/19 09:09:30;;;;;;;2.50;2.40;;;10.80;55.70;;;;;;4917071;29;20520;-78
2022/03/19 09:11:57;;;;;;;2.23;2.13;;;11.10;54.00;;;;;;4917151;29;20481;-77
2022/03/19 09:14:24;;;;;;;2.67;2.57;;;11.20;53.30;;;;;;4917069;29;20957;-77
2022/03/19 09:16:52;;;;;;;2.70;2.60;;;11.30;52.70;;;;;;4917126;29;20913;-77
2022/03/19 09:19:19;;;;;;;2.40;2.30;;;11.40;53.60;;;;;;4916970;29;20504;-77
2022/03/19 09:21:45;;;;;;;2.03;1.93;;;11.40;52.70;;;;;;4916977;29;20457;-77
2022/03/19 09:24:15;;;;;;;2.20;2.10;;;11.40;52.70;;;;;;4916904;29;20886;-77
2022/03/19 09:26:41;;;;;;;2.20;2.10;;;11.50;52.50;;;;;;4916866;29;20480;-77
2022/03/19 09:29:09;;;;;;;2.20;2.10;;;11.50;52.50;;;;;;4916825;29;20520;-77
2022/03/19 09:31:35;;;;;;;2.47;2.37;;;11.30;52.10;;;;;;4916956;29;20457;-77
2022/03/19 09:34:03;;;;;;;2.47;2.37;;;11.20;52.80;;;;;;4916842;29;20452;-77
2022/03/19 09:36:30;;;;;;;2.90;2.70;;;11.20;53.50;;;;;;4916545;29;20992;-77
2022/03/19 09:38:57;;;;;;;2.43;2.33;;;11.00;53.00;;;;;;4916582;29;20967;-77
2022/03/19 09:41:24;;;;;;;2.30;2.20;;;10.90;53.10;;;;;;4916561;29;20485;-77
2022/03/19 09:43:51;;;;;;;2.10;2.00;;;10.80;54.20;;;;;;4916442;29;20512;-77
2022/03/19 09:46:18;;;;;;;2.70;2.60;;;10.90;54.70;;;;;;4916751;29;20469;-76
2022/03/19 09:48:45;;;;;;;2.37;2.27;;;11.10;54.20;;;;;;4916595;29;20492;-76
2022/03/19 09:51:14;;;;;;;2.50;2.40;;;11.00;53.50;;;;;;4916422;29;20456;-77
2022/03/19 09:53:42;;;;;;;2.90;2.80;;;10.90;53.50;;;;;;4919349;29;20982;-77
2022/03/19 09:56:10;;;;;;;2.90;2.80;;;10.90;55.30;;;;;;4920138;29;20480;-77
2022/03/19 09:58:36;;;;;;;2.30;2.20;;;11.00;54.40;;;;;;4920145;29;20464;-77
2022/03/19 10:01:04;;;;;;;2.80;2.70;;;11.00;55.40;;;;;;4919782;29;20452;-75
2022/03/19 10:03:33;;;;;;;2.63;2.53;;;11.00;54.20;;;;;;4920075;29;20483;-77
2022/03/19 10:08:56;;;;;;;2.70;2.60;;;11.10;52.70;;;;;;4919777;29;20471;-77
2022/03/19 10:11:24;;;;;;;2.53;2.43;;;11.00;52.20;;;;;;4919937;29;20440;-77
2022/03/19 10:13:52;;;;;;;2.70;2.60;;;11.00;53.10;;;;;;4919852;29;20461;-77
2022/03/19 10:18:55;;;;;;;2.37;2.27;;;10.80;53.00;;;;;;4880712;29;20474;-73
2022/03/19 10:21:22;;;;;;;3.10;2.90;;;11.00;54.00;;;;;;4881358;29;20525;-73
2022/03/19 10:23:48;;;;;;;2.40;2.30;;;11.10;54.60;;;;;;4881415;29;20522;-73
2022/03/19 10:26:27;;;;;;;2.80;2.70;;;11.20;53.60;;;;;;4882578;29;20446;-73
2022/03/19 10:28:59;;;;;;;2.63;2.53;;;11.40;53.90;;;;;;4901133;29;20583;-73
2022/03/19 10:31:31;;;;;;;2.57;2.47;;;11.40;52.60;;;;;;4900619;29;20485;-73
2022/03/19 10:33:58;;;;;;;2.70;2.60;;;11.50;52.10;;;;;;4900895;29;20458;-73
2022/03/19 10:36:31;;;;;;;2.40;2.30;;;11.40;53.20;;;;;;4899832;29;20458;-73
2022/03/19 10:38:58;;;;;;;2.40;2.30;;;11.40;52.80;;;;;;4900079;29;20442;-72
2022/03/19 10:41:27;;;;;;;2.40;2.30;;;11.60;53.00;;;;;;4900031;29;20450;-74
2022/03/19 10:43:54;;;;;;;2.17;2.07;;;11.80;52.70;;;;;;4900271;29;20949;-73
2022/03/19 10:46:21;;;;;;;2.70;2.60;;;11.90;52.60;;;;;;4900065;29;20445;-73
2022/03/19 10:48:54;;;;;;;2.50;2.40;;;12.00;53.00;;;;;;4900270;29;20493;-73
2022/03/19 10:51:21;;;;;;;2.70;2.60;;;12.10;52.60;;;;;;4900068;29;20843;-74
2022/03/19 10:53:49;;;;;;;2.67;2.57;;;11.90;53.30;;;;;;4900462;29;20481;-74
2022/03/19 10:56:16;;;;;;;2.57;2.47;;;11.80;53.60;;;;;;4900218;29;20534;-74
2022/03/19 10:58:45;;;;;;;3.10;3.00;;;11.80;53.10;;;;;;4899839;29;20826;-73
2022/03/19 11:01:15;;;;;;;3.03;2.93;;;11.80;53.60;;;;;;4899744;29;20454;-73
2022/03/19 11:03:43;;;;;;;2.70;2.60;;;11.80;53.70;;;;;;4899327;29;20883;-73
2022/03/19 11:06:10;;;;;;;3.40;3.20;;;11.90;54.20;;;;;;4899568;29;20454;-74
2022/03/19 11:08:42;;;;;;;3.40;3.20;;;11.80;54.70;;;;;;4899513;29;20497;-74
2022/03/19 11:11:11;;;;;;;2.90;2.80;;;11.80;54.80;;;;;;4899349;29;20438;-73
2022/03/19 11:13:43;;;;;;;2.77;2.67;;;12.00;55.10;;;;;;4900301;29;20521;-72
2022/03/19 11:16:12;;;;;;;2.60;2.50;;;12.30;54.10;;;;;;4899243;29;20464;-73
2022/03/19 11:18:40;;;;;;;3.47;3.27;;;12.60;54.40;;;;;;4898999;29;20548;-73
2022/03/19 11:21:07;;;;;;;2.90;2.80;;;12.80;53.70;;;;;;4899162;29;20552;-74
2022/03/19 11:23:42;;;;;;;3.37;3.27;;;12.60;53.30;;;;;;4899218;29;20616;-73
2022/03/19 11:26:14;;;;;;;3.27;3.10;;;12.60;53.60;;;;;;4899058;29;20802;-73
2022/03/19 11:28:41;;;;;;;2.70;2.60;;;12.80;54.40;;;;;;4898984;29;20521;-73
2022/03/19 11:31:08;;;;;;;3.20;3.10;;;13.00;54.00;;;;;;4899511;29;20458;-74
2022/03/19 11:33:38;;;;;;;3.27;3.17;;;12.90;53.50;;;;;;4899175;29;20497;-73
2022/03/19 11:36:07;;;;;;;3.50;3.40;;;12.70;53.20;;;;;;4898727;29;20913;-73
2022/03/19 11:38:40;;;;;;;2.47;2.37;;;12.80;53.50;;;;;;4898907;29;20532;-73
2022/03/19 11:41:19;;;;;;;2.33;2.23;;;12.90;52.90;;;;;;4898514;29;20804;-72
2022/03/19 11:43:45;;;;;;;2.43;2.33;;;12.90;52.30;;;;;;4898725;29;20513;-73
2022/03/19 11:46:13;;;;;;;1.70;1.60;;;12.70;52.30;;;;;;4898955;29;20454;-74
2022/03/19 11:48:44;;;;;;;2.23;2.13;;;12.70;49.80;;;;;;4898219;29;20485;-73
2022/03/19 11:51:17;;;;;;;2.10;2.00;;;12.60;49.20;;;;;;4899316;29;20521;-74
2022/03/19 11:53:52;;;;;;;2.50;1.93;;;12.60;47.90;;;;;;4898594;29;20453;-74
2022/03/19 11:56:19;;;;;;;2.00;1.90;;;12.80;48.70;;;;;;4899025;29;20457;-74
2022/03/19 11:58:46;;;;;;;1.70;1.60;;;12.90;47.60;;;;;;4898624;29;20532;-74
2022/03/19 12:01:13;;;;;;;1.50;1.40;;;12.90;48.00;;;;;;4898738;29;20513;-73
2022/03/19 12:04:12;;;;;;;1.70;1.60;;;13.20;47.70;;;;;;4899080;29;20455;-73
2022/03/19 12:06:49;;;;;;;1.83;1.73;;;13.60;47.70;;;;;;4898788;29;20526;-74
2022/03/19 12:09:16;;;;;;;1.70;1.60;;;13.80;47.30;;;;;;4898889;29;20469;-73
2022/03/19 12:12:06;;;;;;;1.97;1.87;;;14.10;46.60;;;;;;4899219;29;20462;-72
2022/03/19 12:14:33;;;;;;;1.80;1.70;;;14.10;47.10;;;;;;4898427;29;20469;-73
2022/03/19 12:17:15;;;;;;;1.67;1.57;;;14.40;48.10;;;;;;4898173;29;20489;-72
2022/03/19 12:19:55;;;;;;;1.70;1.60;;;14.60;47.30;;;;;;4898877;29;21118;-74
2022/03/19 12:22:29;;;;;;;1.60;1.50;;;14.90;46.40;;;;;;4898926;29;20536;-72
2022/03/19 12:25:05;;;;;;;1.37;1.27;;;14.80;47.60;;;;;;4897853;29;20445;-73
2022/03/19 12:27:32;;;;;;;1.67;1.57;;;14.50;46.40;;;;;;4898103;29;20985;-74
2022/03/19 12:29:59;;;;;;;1.80;1.70;;;14.10;46.20;;;;;;4899224;29;20568;-73
2022/03/19 12:32:26;;;;;;;1.70;1.60;;;13.80;46.90;;;;;;4899031;29;20485;-72
2022/03/19 12:34:59;;;;;;;1.70;1.60;;;13.70;47.00;;;;;;4898210;29;20454;-74
2022/03/19 12:37:26;;;;;;;1.63;1.53;;;13.60;46.50;;;;;;4898467;29;20490;-73
2022/03/19 12:39:59;;;;;;;1.53;1.43;;;13.20;46.40;;;;;;4897811;29;20605;-72
2022/03/19 12:42:31;;;;;;;1.40;1.30;;;12.90;47.60;;;;;;4897867;29;20545;-73
2022/03/19 12:44:59;;;;;;;2.00;1.90;;;13.10;48.80;;;;;;4897795;29;20490;-73
2022/03/19 12:47:26;;;;;;;1.50;1.40;;;13.20;47.70;;;;;;4897938;29;20482;-72
2022/03/19 12:49:54;;;;;;;1.50;1.40;;;13.50;47.10;;;;;;4897976;29;20563;-73
2022/03/19 12:52:23;;;;;;;1.47;1.37;;;13.40;45.60;;;;;;4897534;29;20450;-73
2022/03/19 12:54:55;;;;;;;1.50;1.40;;;13.20;44.90;;;;;;4898432;29;20540;-73
2022/03/19 12:57:24;;;;;;;1.33;1.23;;;12.90;45.00;;;;;;4898479;29;20849;-74
2022/03/19 12:59:53;;;;;;;1.60;1.50;;;12.70;45.60;;;;;;4898075;29;20458;-75
2022/03/19 13:02:20;;;;;;;1.50;1.40;;;12.50;46.80;;;;;;4898315;29;20556;-75
2022/03/19 13:04:47;;;;;;;1.70;1.60;;;12.50;47.00;;;;;;4897976;29;20501;-74
2022/03/19 13:07:15;;;;;;;1.83;1.73;;;12.40;47.10;;;;;;4897175;29;20994;-74
2022/03/19 13:09:43;;;;;;;1.40;1.30;;;12.40;47.80;;;;;;4897825;29;20485;-74
2022/03/19 13:12:15;;;;;;;1.50;1.40;;;12.90;47.90;;;;;;4897791;29;20450;-73
2022/03/19 13:14:48;;;;;;;1.70;1.60;;;13.30;47.40;;;;;;4897368;29;20441;-74
2022/03/19 13:17:16;;;;;;;1.50;1.40;;;13.70;45.80;;;;;;4897397;29;21094;-74
2022/03/19 13:19:43;;;;;;;1.40;1.30;;;13.70;44.50;;;;;;4897793;29;20517;-73
2022/03/19 13:22:16;;;;;;;1.47;1.37;;;13.60;45.00;;;;;;4898382;29;20505;-73
2022/03/19 13:24:45;;;;;;;1.40;1.30;;;13.40;44.50;;;;;;4898459;29;20442;-71
2022/03/19 13:27:14;;;;;;;1.50;1.40;;;13.40;44.60;;;;;;4898754;29;20477;-72
2022/03/19 13:29:40;;;;;;;1.30;1.20;;;13.10;44.60;;;;;;4901732;29;20580;-73
2022/03/19 13:32:09;;;;;;;1.20;1.10;;;13.20;45.10;;;;;;4901270;29;20456;-72
2022/03/19 13:34:38;;;;;;;1.03;0.93;;;13.40;44.90;;;;;;4901226;29;20461;-73
2022/03/19 13:37:06;;;;;;;1.40;1.30;;;13.50;44.60;;;;;;4900911;29;20903;-72
2022/03/19 13:39:35;;;;;;;1.20;1.10;;;13.30;45.10;;;;;;4902704;29;20458;-74
2022/03/19 13:42:06;;;;;;;1.10;1.00;;;13.50;45.10;;;;;;4901264;29;20932;-73
2022/03/19 13:44:34;;;;;;;1.30;1.20;;;13.30;44.50;;;;;;4901768;29;20449;-74
2022/03/19 13:47:10;;;;;;;1.50;1.40;;;13.20;44.60;;;;;;4901658;29;20902;-75
2022/03/19 13:49:39;;;;;;;1.33;1.23;;;13.10;44.80;;;;;;4900915;29;20562;-74
2022/03/19 13:52:06;;;;;;;1.33;1.23;;;12.80;45.00;;;;;;4900564;29;21008;-74
2022/03/19 13:54:46;;;;;;;1.20;1.10;;;12.70;45.30;;;;;;4901012;29;20540;-74
2022/03/19 13:57:16;;;;;;;1.60;1.50;;;12.70;43.80;;;;;;4901084;29;20480;-74
2022/03/19 13:59:45;;;;;;;1.10;1.00;;;13.00;44.80;;;;;;4901276;29;20452;-74
2022/03/19 14:02:12;;;;;;;1.40;1.27;;;13.20;43.60;;;;;;4901299;29;20460;-74
2022/03/19 14:04:39;;;;;;;1.27;1.17;;;13.30;43.90;;;;;;4901525;29;20457;-74
2022/03/19 14:07:06;;;;;;;1.37;1.23;;;13.70;43.00;;;;;;4901932;29;20501;-75
2022/03/19 14:09:33;;;;;;;1.20;1.10;;;14.10;42.30;;;;;;4901062;29;21008;-74
2022/03/19 14:12:00;;;;;;;1.00;0.90;;;13.80;41.90;;;;;;4901791;29;20481;-75
2022/03/19 14:14:37;;;;;;;1.00;0.90;;;13.60;42.60;;;;;;4900797;29;20521;-74
2022/03/19 14:17:04;;;;;;;1.10;1.00;;;13.00;43.20;;;;;;4900429;29;20497;-74
2022/03/19 14:19:31;;;;;;;1.57;1.30;;;12.80;44.30;;;;;;4900742;29;20457;-74
2022/03/19 14:21:58;;;;;;;1.80;1.57;;;12.60;44.30;;;;;;4900581;29;20458;-74
2022/03/19 14:24:28;;;;;;;1.30;1.20;;;13.00;43.80;;;;;;4900534;29;20454;-73
2022/03/19 14:26:56;;;;;;;1.50;1.40;;;13.30;43.40;;;;;;4900124;29;20485;-74
2022/03/19 14:29:23;;;;;;;1.10;1.00;;;12.90;43.80;;;;;;4900067;29;20585;-74
2022/03/19 14:31:51;;;;;;;1.10;1.00;;;12.90;44.20;;;;;;4900317;29;20938;-73
2022/03/19 14:34:19;;;;;;;1.60;1.20;;;12.80;44.50;;;;;;4900360;29;20517;-73
2022/03/19 14:36:46;;;;;;;1.00;0.90;;;14.30;43.40;;;;;;4899977;29;20528;-74
2022/03/19 14:39:12;;;;;;;1.10;1.00;;;16.40;38.10;;;;;;4899578;29;20505;-74
2022/03/19 14:41:39;;;;;;;1.03;0.93;;;17.90;37.20;;;;;;4900225;29;20453;-73
2022/03/19 14:44:06;;;;;;;1.37;1.27;;;19.20;35.20;;;;;;4899897;29;20458;-74
2022/03/19 14:46:33;;;;;;;1.20;1.10;;;20.40;33.80;;;;;;4899754;29;20993;-74
2022/03/19 14:49:01;;;;;;;1.00;0.90;;;20.90;32.80;;;;;;4899471;29;20461;-74
2022/03/19 14:51:28;;;;;;;0.90;0.80;;;19.20;33.70;;;;;;4899523;29;21001;-74
2022/03/19 14:53:54;;;;;;;0.90;0.80;;;18.00;36.00;;;;;;4899795;29;20458;-73
2022/03/19 14:56:21;;;;;;;0.97;0.87;;;17.00;37.00;;;;;;4899485;29;20493;-74
2022/03/19 14:58:49;;;;;;;0.87;0.80;;;16.10;38.00;;;;;;4899796;29;20450;-74
2022/03/19 15:01:17;;;;;;;1.00;0.90;;;15.40;38.50;;;;;;4899741;29;20522;-74
2022/03/19 15:03:45;;;;;;;0.90;0.80;;;14.70;39.20;;;;;;4899786;29;20450;-74
2022/03/19 15:06:13;;;;;;;1.00;0.90;;;14.00;41.00;;;;;;4899642;29;20652;-73
2022/03/19 15:08:40;;;;;;;1.00;0.90;;;13.40;41.70;;;;;;4899585;29;20454;-73
2022/03/19 15:11:07;;;;;;;1.00;0.90;;;13.10;41.90;;;;;;4899688;29;20493;-74
2022/03/19 15:13:34;;;;;;;0.90;0.80;;;12.70;42.20;;;;;;4905852;29;20505;-74
2022/03/19 15:16:01;;;;;;;1.00;0.90;;;12.20;42.80;;;;;;4915623;29;20502;-74
2022/03/19 15:18:28;;;;;;;0.90;0.70;;;11.90;43.00;;;;;;4916036;29;20511;-73
2022/03/19 15:20:56;;;;;;;0.90;0.80;;;11.90;43.40;;;;;;4900651;29;20965;-73
2022/03/19 15:23:24;;;;;;;0.90;0.80;;;12.10;43.40;;;;;;4899308;29;20461;-73
2022/03/19 15:25:50;;;;;;;0.83;0.80;;;11.90;43.10;;;;;;4899771;29;20505;-74
2022/03/19 15:28:17;;;;;;;0.90;0.80;;;11.80;44.00;;;;;;4899643;29;20474;-74
2022/03/19 15:30:44;;;;;;;1.00;0.80;;;11.80;43.90;;;;;;4899772;29;20490;-74
2022/03/19 15:33:11;;;;;;;0.90;0.80;;;11.80;44.10;;;;;;4899855;29;20457;-73
2022/03/19 15:35:37;;;;;;;1.30;0.70;;;11.90;44.20;;;;;;4899860;29;20464;-74
2022/03/19 15:38:05;;;;;;;0.87;0.80;;;12.00;43.70;;;;;;4899374;29;20525;-74
2022/03/19 15:40:33;;;;;;;0.80;0.80;;;12.00;43.40;;;;;;4899372;29;20454;-73
2022/03/19 15:43:01;;;;;;;1.03;0.70;;;11.90;44.40;;;;;;4899139;29;20449;-74
2022/03/19 15:45:29;;;;;;;0.93;0.83;;;11.70;45.60;;;;;;4898880;29;20946;-74
2022/03/19 15:47:56;;;;;;;0.80;0.70;;;11.40;45.60;;;;;;4899320;29;20466;-74
2022/03/19 15:50:24;;;;;;;0.80;0.70;;;11.10;46.50;;;;;;4898142;29;20499;-74
2022/03/19 15:52:52;;;;;;;0.80;0.80;;;10.90;46.60;;;;;;4898837;29;20458;-74
2022/03/19 15:55:19;;;;;;;1.00;0.90;;;10.60;50.40;;;;;;4898482;29;20991;-74
2022/03/19 15:57:47;;;;;;;2.43;1.00;;;10.10;55.40;;;;;;4898623;29;20477;-74
2022/03/19 16:00:15;;;;;;;1.10;1.00;;;9.70;57.30;;;;;;4898723;29;20450;-73
2022/03/19 16:02:42;;;;;;;1.10;1.00;;;9.50;57.50;;;;;;4898702;29;20457;-74
2022/03/19 16:05:10;;;;;;;0.97;0.83;;;9.30;58.60;;;;;;4898430;29;20458;-74
2022/03/19 16:07:37;;;;;;;1.20;1.10;;;9.20;58.90;;;;;;4898185;29;20481;-73
2022/03/19 16:10:05;;;;;;;1.10;0.90;;;9.00;58.60;;;;;;4898344;29;20518;-74
2022/03/19 16:12:38;;;;;;;1.13;1.03;;;8.90;59.10;;;;;;4898436;29;20461;-73
2022/03/19 16:15:07;;;;;;;1.10;1.00;;;8.90;59.30;;;;;;4898331;29;20442;-73
2022/03/19 16:17:36;;;;;;;1.00;0.90;;;8.90;59.80;;;;;;5026217;23;20505;-76
2022/03/19 16:20:03;;;;;;;0.83;0.73;;;9.00;59.50;;;;;;4936655;29;20547;-76
2022/03/19 16:22:30;;;;;;;1.10;1.00;;;9.20;58.70;;;;;;4936619;29;20439;-77
2022/03/19 16:24:57;;;;;;;0.90;0.70;;;9.20;58.50;;;;;;4936543;29;20459;-76
2022/03/19 16:27:24;;;;;;;0.90;0.80;;;9.20;57.80;;;;;;4936151;29;20893;-76
2022/03/19 16:29:50;;;;;;;0.83;0.77;;;9.20;57.40;;;;;;4936361;29;20492;-76
2022/03/19 16:32:18;;;;;;;1.10;1.00;;;9.30;57.20;;;;;;4936448;29;20491;-77
2022/03/19 16:34:45;;;;;;;1.57;1.47;;;9.30;57.30;;;;;;4936144;29;20484;-76
2022/03/19 16:37:14;;;;;;;1.00;0.90;;;9.20;57.50;;;;;;4936282;29;20484;-76
2022/03/19 16:39:40;;;;;;;0.97;0.87;;;9.00;57.80;;;;;;4936358;29;20455;-77
2022/03/19 16:42:08;;;;;;;1.00;0.83;;;9.00;58.40;;;;;;4936329;29;20503;-76
2022/03/19 16:44:34;;;;;;;1.00;0.90;;;8.70;58.80;;;;;;4936400;29;20491;-77
2022/03/19 16:47:02;;;;;;;0.90;0.80;;;8.50;59.70;;;;;;4936235;29;20472;-77
2022/03/19 16:49:30;;;;;;;0.90;0.80;;;8.50;59.80;;;;;;4936721;29;20456;-76
2022/03/19 16:51:57;;;;;;;0.83;0.80;;;8.70;59.60;;;;;;4936213;29;20447;-77
2022/03/19 16:54:23;;;;;;;0.90;0.83;;;8.90;59.00;;;;;;4936223;29;20455;-77
2022/03/19 16:56:50;;;;;;;0.80;0.70;;;9.00;58.90;;;;;;4936090;29;20871;-77
2022/03/19 16:59:16;;;;;;;0.90;0.80;;;9.10;58.90;;;;;;4935801;29;20939;-77
2022/03/19 17:01:44;;;;;;;1.00;0.90;;;9.20;58.60;;;;;;4938948;29;20944;-77
2022/03/19 17:04:10;;;;;;;1.13;1.00;;;9.40;58.50;;;;;;4942258;29;20961;-77
2022/03/19 17:06:38;;;;;;;0.80;0.70;;;9.30;57.90;;;;;;4942096;29;20943;-77
2022/03/19 17:09:05;;;;;;;1.00;0.90;;;9.20;58.30;;;;;;4942447;29;20499;-77
2022/03/19 17:11:31;;;;;;;1.00;0.80;;;9.30;58.20;;;;;;4942359;29;20491;-77
2022/03/19 17:13:58;;;;;;;1.00;0.90;;;9.40;58.10;;;;;;4942381;29;20484;-77
2022/03/19 17:16:25;;;;;;;0.87;0.77;;;9.50;57.80;;;;;;4942410;29;20542;-77